sensor_id;sensor_type;location;lat;lon;timestamp;P1;durP1;ratioP1;P2;durP2;ratioP2
16101;SDS011;56411;52.964;10.540;2023-02-18T00:02:18;17.00;;;3.40;;
16101;SDS011;56411;52.964;10.540;2023-02-18T00:04:47;16.90;;;3.10;;
16101;SDS011;56411;52.964;10.540;2023-02-18T00:07:14;16.30;;;3.37;;
16101;SDS011;56411;52.964;10.540;2023-02-18T00:09:41;16.40;;;2.70;;
16101;SDS011;56411;52.964;10.540;2023-02-18T00:12:08;15.27;;;2.93;;
16101;SDS011;56411;52.964;10.540;2023-02-18T00:14:35;14.10;;;2.73;;
16101;SDS011;56411;52.964;10.540;2023-02-18T00:17:02;14.73;;;3.47;;
16101;SDS011;56411;52.964;10.540;2023-02-18T00:19:29;15.90;;;2.93;;
16101;SDS011;56411;52.964;10.540;2023-02-18T00:21:57;17.00;;;3.30;;
16101;SDS011;56411;52.964;10.540;2023-02-18T00:24:24;16.83;;;3.27;;
16101;SDS011;56411;52.964;10.540;2023-02-18T00:26:51;15.90;;;3.40;;
16101;SDS011;56411;52.964;10.540;2023-02-18T00:29:19;16.37;;;3.20;;
16101;SDS011;56411;52.964;10.540;2023-02-18T00:31:46;13.63;;;2.97;;
16101;SDS011;56411;52.964;10.540;2023-02-18T00:34:13;19.70;;;3.33;;
16101;SDS011;56411;52.964;10.540;2023-02-18T00:36:40;16.17;;;3.17;;
16101;SDS011;56411;52.964;10.540;2023-02-18T00:39:09;17.73;;;3.13;;
16101;SDS011;56411;52.964;10.540;2023-02-18T00:41:37;14.50;;;2.87;;
16101;SDS011;56411;52.964;10.540;2023-02-18T00:44:04;18.67;;;3.10;;
16101;SDS011;56411;52.964;10.540;2023-02-18T00:46:32;18.17;;;3.80;;
16101;SDS011;56411;52.964;10.540;2023-02-18T00:49:00;15.07;;;3.07;;
16101;SDS011;56411;52.964;10.540;2023-02-18T00:51:27;18.23;;;3.23;;
16101;SDS011;56411;52.964;10.540;2023-02-18T00:53:54;16.70;;;3.10;;
16101;SDS011;56411;52.964;10.540;2023-02-18T00:56:23;17.47;;;3.40;;
16101;SDS011;56411;52.964;10.540;2023-02-18T00:58:50;16.07;;;3.73;;
16101;SDS011;56411;52.964;10.540;2023-02-18T01:01:17;15.33;;;3.10;;
16101;SDS011;56411;52.964;10.540;2023-02-18T01:03:45;13.07;;;2.77;;
16101;SDS011;56411;52.964;10.540;2023-02-18T01:06:13;12.90;;;2.60;;
16101;SDS011;56411;52.964;10.540;2023-02-18T01:08:40;13.47;;;2.47;;
16101;SDS011;56411;52.964;10.540;2023-02-18T01:11:08;15.50;;;3.00;;
16101;SDS011;56411;52.964;10.540;2023-02-18T01:13:38;16.50;;;2.70;;
16101;SDS011;56411;52.964;10.540;2023-02-18T01:16:06;15.77;;;3.13;;
16101;SDS011;56411;52.964;10.540;2023-02-18T01:18:34;16.97;;;3.00;;
16101;SDS011;56411;52.964;10.540;2023-02-18T01:21:01;14.73;;;2.80;;
16101;SDS011;56411;52.964;10.540;2023-02-18T01:23:29;14.23;;;3.10;;
16101;SDS011;56411;52.964;10.540;2023-02-18T01:25:56;13.03;;;2.87;;
16101;SDS011;56411;52.964;10.540;2023-02-18T01:28:24;16.23;;;3.00;;
16101;SDS011;56411;52.964;10.540;2023-02-18T01:30:52;10.87;;;2.40;;
16101;SDS011;56411;52.964;10.540;2023-02-18T01:33:20;13.73;;;2.70;;
16101;SDS011;56411;52.964;10.540;2023-02-18T01:35:47;14.50;;;2.70;;
16101;SDS011;56411;52.964;10.540;2023-02-18T01:38:14;12.83;;;2.50;;
16101;SDS011;56411;52.964;10.540;2023-02-18T01:40:45;15.60;;;2.83;;
16101;SDS011;56411;52.964;10.540;2023-02-18T01:43:15;14.70;;;3.23;;
16101;SDS011;56411;52.964;10.540;2023-02-18T01:45:49;13.70;;;2.60;;
16101;SDS011;56411;52.964;10.540;2023-02-18T01:48:36;12.27;;;3.27;;
16101;SDS011;56411;52.964;10.540;2023-02-18T01:51:07;15.93;;;2.90;;
16101;SDS011;56411;52.964;10.540;2023-02-18T01:53:38;10.63;;;2.50;;
16101;SDS011;56411;52.964;10.540;2023-02-18T01:56:13;13.30;;;2.70;;
16101;SDS011;56411;52.964;10.540;2023-02-18T01:58:45;12.27;;;2.90;;
16101;SDS011;56411;52.964;10.540;2023-02-18T02:01:15;12.43;;;3.03;;
16101;SDS011;56411;52.964;10.540;2023-02-18T02:03:42;14.53;;;2.60;;
16101;SDS011;56411;52.964;10.540;2023-02-18T02:06:11;14.17;;;2.70;;
16101;SDS011;56411;52.964;10.540;2023-02-18T02:08:42;14.20;;;3.17;;
16101;SDS011;56411;52.964;10.540;2023-02-18T02:11:15;12.80;;;2.40;;
16101;SDS011;56411;52.964;10.540;2023-02-18T02:13:54;15.30;;;3.00;;
16101;SDS011;56411;52.964;10.540;2023-02-18T02:16:36;12.43;;;2.33;;
16101;SDS011;56411;52.964;10.540;2023-02-18T02:19:26;14.70;;;2.50;;
16101;SDS011;56411;52.964;10.540;2023-02-18T02:25:15;17.93;;;3.10;;
16101;SDS011;56411;52.964;10.540;2023-02-18T02:31:02;14.37;;;3.10;;
16101;SDS011;56411;52.964;10.540;2023-02-18T02:33:57;9.37;;;2.27;;
16101;SDS011;56411;52.964;10.540;2023-02-18T02:36:59;13.57;;;2.73;;
16101;SDS011;56411;52.964;10.540;2023-02-18T02:39:33;14.00;;;2.60;;
16101;SDS011;56411;52.964;10.540;2023-02-18T02:42:09;11.13;;;2.50;;
16101;SDS011;56411;52.964;10.540;2023-02-18T02:44:45;11.83;;;2.77;;
16101;SDS011;56411;52.964;10.540;2023-02-18T02:47:18;15.23;;;2.50;;
16101;SDS011;56411;52.964;10.540;2023-02-18T02:49:52;15.30;;;3.40;;
16101;SDS011;56411;52.964;10.540;2023-02-18T02:52:29;11.27;;;2.33;;
16101;SDS011;56411;52.964;10.540;2023-02-18T02:54:59;13.57;;;2.60;;
16101;SDS011;56411;52.964;10.540;2023-02-18T02:57:42;12.30;;;2.50;;
16101;SDS011;56411;52.964;10.540;2023-02-18T03:00:12;12.40;;;2.60;;
16101;SDS011;56411;52.964;10.540;2023-02-18T03:02:46;14.73;;;2.80;;
16101;SDS011;56411;52.964;10.540;2023-02-18T03:05:33;13.23;;;3.23;;
16101;SDS011;56411;52.964;10.540;2023-02-18T03:08:15;14.77;;;2.60;;
16101;SDS011;56411;52.964;10.540;2023-02-18T03:11:02;13.43;;;2.30;;
16101;SDS011;56411;52.964;10.540;2023-02-18T03:13:35;13.33;;;2.63;;
16101;SDS011;56411;52.964;10.540;2023-02-18T03:16:19;14.63;;;2.70;;
16101;SDS011;56411;52.964;10.540;2023-02-18T03:18:54;15.53;;;3.13;;
16101;SDS011;56411;52.964;10.540;2023-02-18T03:21:26;13.00;;;2.50;;
16101;SDS011;56411;52.964;10.540;2023-02-18T03:23:58;12.87;;;3.27;;
16101;SDS011;56411;52.964;10.540;2023-02-18T03:26:30;12.30;;;2.40;;
16101;SDS011;56411;52.964;10.540;2023-02-18T03:29:00;10.80;;;2.73;;
16101;SDS011;56411;52.964;10.540;2023-02-18T03:31:29;11.83;;;2.30;;
16101;SDS011;56411;52.964;10.540;2023-02-18T03:34:00;14.73;;;2.30;;
16101;SDS011;56411;52.964;10.540;2023-02-18T03:36:30;11.80;;;2.47;;
16101;SDS011;56411;52.964;10.540;2023-02-18T03:39:02;11.73;;;2.17;;
16101;SDS011;56411;52.964;10.540;2023-02-18T03:41:31;12.97;;;2.60;;
16101;SDS011;56411;52.964;10.540;2023-02-18T03:43:59;13.70;;;2.67;;
16101;SDS011;56411;52.964;10.540;2023-02-18T03:46:29;13.33;;;2.73;;
16101;SDS011;56411;52.964;10.540;2023-02-18T03:48:56;12.23;;;2.50;;
16101;SDS011;56411;52.964;10.540;2023-02-18T03:51:24;13.33;;;2.37;;
16101;SDS011;56411;52.964;10.540;2023-02-18T03:53:51;10.37;;;2.33;;
16101;SDS011;56411;52.964;10.540;2023-02-18T03:56:20;14.40;;;2.93;;
16101;SDS011;56411;52.964;10.540;2023-02-18T03:58:46;12.10;;;2.27;;
16101;SDS011;56411;52.964;10.540;2023-02-18T04:01:14;12.77;;;2.33;;
16101;SDS011;56411;52.964;10.540;2023-02-18T04:03:41;14.23;;;2.90;;
16101;SDS011;56411;52.964;10.540;2023-02-18T04:06:08;10.97;;;2.30;;
16101;SDS011;56411;52.964;10.540;2023-02-18T04:08:35;11.77;;;2.50;;
16101;SDS011;56411;52.964;10.540;2023-02-18T04:11:02;12.17;;;2.60;;
16101;SDS011;56411;52.964;10.540;2023-02-18T04:13:31;15.90;;;2.57;;
16101;SDS011;56411;52.964;10.540;2023-02-18T04:15:58;12.93;;;2.10;;
16101;SDS011;56411;52.964;10.540;2023-02-18T04:18:25;9.57;;;2.60;;
16101;SDS011;56411;52.964;10.540;2023-02-18T04:20:52;11.13;;;2.30;;
16101;SDS011;56411;52.964;10.540;2023-02-18T04:23:19;10.47;;;2.43;;
16101;SDS011;56411;52.964;10.540;2023-02-18T04:25:46;8.20;;;2.30;;
16101;SDS011;56411;52.964;10.540;2023-02-18T04:28:13;14.33;;;2.70;;
16101;SDS011;56411;52.964;10.540;2023-02-18T04:30:43;13.30;;;2.67;;
16101;SDS011;56411;52.964;10.540;2023-02-18T04:33:11;10.17;;;2.90;;
16101;SDS011;56411;52.964;10.540;2023-02-18T04:35:38;11.17;;;2.30;;
16101;SDS011;56411;52.964;10.540;2023-02-18T04:38:06;12.37;;;2.90;;
16101;SDS011;56411;52.964;10.540;2023-02-18T04:40:33;12.37;;;2.87;;
16101;SDS011;56411;52.964;10.540;2023-02-18T04:43:00;10.57;;;2.40;;
16101;SDS011;56411;52.964;10.540;2023-02-18T04:45:28;10.30;;;2.60;;
16101;SDS011;56411;52.964;10.540;2023-02-18T04:47:57;9.03;;;2.10;;
16101;SDS011;56411;52.964;10.540;2023-02-18T04:50:23;12.23;;;2.60;;
16101;SDS011;56411;52.964;10.540;2023-02-18T04:52:50;10.50;;;2.60;;
16101;SDS011;56411;52.964;10.540;2023-02-18T04:55:17;9.97;;;2.17;;
16101;SDS011;56411;52.964;10.540;2023-02-18T04:57:44;12.87;;;2.30;;
16101;SDS011;56411;52.964;10.540;2023-02-18T05:00:13;12.60;;;2.40;;
16101;SDS011;56411;52.964;10.540;2023-02-18T05:02:42;12.90;;;3.60;;
16101;SDS011;56411;52.964;10.540;2023-02-18T05:05:11;11.23;;;2.40;;
16101;SDS011;56411;52.964;10.540;2023-02-18T05:07:39;13.17;;;2.30;;
16101;SDS011;56411;52.964;10.540;2023-02-18T05:10:07;11.23;;;2.60;;
16101;SDS011;56411;52.964;10.540;2023-02-18T05:12:35;9.67;;;2.30;;
16101;SDS011;56411;52.964;10.540;2023-02-18T05:15:02;12.27;;;2.40;;
16101;SDS011;56411;52.964;10.540;2023-02-18T05:17:29;13.63;;;2.50;;
16101;SDS011;56411;52.964;10.540;2023-02-18T05:19:56;11.93;;;2.47;;
16101;SDS011;56411;52.964;10.540;2023-02-18T05:22:25;12.00;;;2.63;;
16101;SDS011;56411;52.964;10.540;2023-02-18T05:24:52;9.37;;;2.23;;
16101;SDS011;56411;52.964;10.540;2023-02-18T05:27:19;10.03;;;2.27;;
16101;SDS011;56411;52.964;10.540;2023-02-18T05:29:45;10.00;;;2.37;;
16101;SDS011;56411;52.964;10.540;2023-02-18T05:32:12;11.87;;;2.30;;
16101;SDS011;56411;52.964;10.540;2023-02-18T05:34:39;10.90;;;2.27;;
16101;SDS011;56411;52.964;10.540;2023-02-18T05:37:07;9.33;;;2.43;;
16101;SDS011;56411;52.964;10.540;2023-02-18T05:39:35;7.73;;;1.80;;
16101;SDS011;56411;52.964;10.540;2023-02-18T05:42:02;11.23;;;1.97;;
16101;SDS011;56411;52.964;10.540;2023-02-18T05:44:29;11.30;;;2.33;;
16101;SDS011;56411;52.964;10.540;2023-02-18T05:46:55;7.43;;;1.83;;
16101;SDS011;56411;52.964;10.540;2023-02-18T05:49:24;9.87;;;2.23;;
16101;SDS011;56411;52.964;10.540;2023-02-18T05:51:51;11.07;;;2.40;;
16101;SDS011;56411;52.964;10.540;2023-02-18T05:54:18;11.13;;;1.87;;
16101;SDS011;56411;52.964;10.540;2023-02-18T05:56:46;9.43;;;2.00;;
16101;SDS011;56411;52.964;10.540;2023-02-18T05:59:13;11.03;;;2.13;;
16101;SDS011;56411;52.964;10.540;2023-02-18T06:01:40;11.97;;;2.50;;
16101;SDS011;56411;52.964;10.540;2023-02-18T06:04:07;12.10;;;2.17;;
16101;SDS011;56411;52.964;10.540;2023-02-18T06:06:34;11.80;;;2.10;;
16101;SDS011;56411;52.964;10.540;2023-02-18T06:09:02;10.00;;;2.10;;
16101;SDS011;56411;52.964;10.540;2023-02-18T06:11:29;10.43;;;2.23;;
16101;SDS011;56411;52.964;10.540;2023-02-18T06:13:58;10.30;;;2.40;;
16101;SDS011;56411;52.964;10.540;2023-02-18T06:16:24;11.87;;;2.20;;
16101;SDS011;56411;52.964;10.540;2023-02-18T06:18:52;9.70;;;2.10;;
16101;SDS011;56411;52.964;10.540;2023-02-18T06:21:19;11.03;;;2.30;;
16101;SDS011;56411;52.964;10.540;2023-02-18T06:23:46;11.77;;;2.30;;
16101;SDS011;56411;52.964;10.540;2023-02-18T06:26:13;9.13;;;2.07;;
16101;SDS011;56411;52.964;10.540;2023-02-18T06:28:40;13.43;;;2.50;;
16101;SDS011;56411;52.964;10.540;2023-02-18T06:31:08;10.27;;;2.17;;
16101;SDS011;56411;52.964;10.540;2023-02-18T06:33:35;10.43;;;2.50;;
16101;SDS011;56411;52.964;10.540;2023-02-18T06:36:03;11.83;;;2.47;;
16101;SDS011;56411;52.964;10.540;2023-02-18T06:38:34;11.97;;;2.50;;
16101;SDS011;56411;52.964;10.540;2023-02-18T06:41:01;9.33;;;2.20;;
16101;SDS011;56411;52.964;10.540;2023-02-18T06:43:28;11.93;;;2.50;;
16101;SDS011;56411;52.964;10.540;2023-02-18T06:45:55;8.97;;;2.33;;
16101;SDS011;56411;52.964;10.540;2023-02-18T06:48:24;11.03;;;2.30;;
16101;SDS011;56411;52.964;10.540;2023-02-18T06:50:50;11.27;;;2.20;;
16101;SDS011;56411;52.964;10.540;2023-02-18T06:53:17;9.87;;;2.20;;
16101;SDS011;56411;52.964;10.540;2023-02-18T06:55:44;12.57;;;2.27;;
16101;SDS011;56411;52.964;10.540;2023-02-18T06:58:12;15.07;;;2.77;;
16101;SDS011;56411;52.964;10.540;2023-02-18T07:00:39;14.93;;;3.20;;
16101;SDS011;56411;52.964;10.540;2023-02-18T07:03:06;11.73;;;2.30;;
16101;SDS011;56411;52.964;10.540;2023-02-18T07:05:35;12.17;;;2.33;;
16101;SDS011;56411;52.964;10.540;2023-02-18T07:08:02;12.97;;;2.67;;
16101;SDS011;56411;52.964;10.540;2023-02-18T07:10:29;10.00;;;2.47;;
16101;SDS011;56411;52.964;10.540;2023-02-18T07:12:56;12.37;;;2.67;;
16101;SDS011;56411;52.964;10.540;2023-02-18T07:15:23;11.40;;;2.63;;
16101;SDS011;56411;52.964;10.540;2023-02-18T07:17:52;11.13;;;2.43;;
16101;SDS011;56411;52.964;10.540;2023-02-18T07:20:20;12.43;;;2.43;;
16101;SDS011;56411;52.964;10.540;2023-02-18T07:22:49;10.97;;;2.80;;
16101;SDS011;56411;52.964;10.540;2023-02-18T07:25:16;14.43;;;3.30;;
16101;SDS011;56411;52.964;10.540;2023-02-18T07:27:43;11.50;;;3.10;;
16101;SDS011;56411;52.964;10.540;2023-02-18T07:30:10;14.33;;;3.00;;
16101;SDS011;56411;52.964;10.540;2023-02-18T07:32:38;14.53;;;3.27;;
16101;SDS011;56411;52.964;10.540;2023-02-18T07:35:05;18.27;;;4.63;;
16101;SDS011;56411;52.964;10.540;2023-02-18T07:37:33;16.80;;;3.97;;
16101;SDS011;56411;52.964;10.540;2023-02-18T07:40:01;13.10;;;3.30;;
16101;SDS011;56411;52.964;10.540;2023-02-18T07:42:28;14.77;;;3.50;;
16101;SDS011;56411;52.964;10.540;2023-02-18T07:44:55;17.70;;;3.77;;
16101;SDS011;56411;52.964;10.540;2023-02-18T07:47:22;14.20;;;3.83;;
16101;SDS011;56411;52.964;10.540;2023-02-18T07:49:49;14.00;;;4.13;;
16101;SDS011;56411;52.964;10.540;2023-02-18T07:52:17;14.90;;;4.03;;
16101;SDS011;56411;52.964;10.540;2023-02-18T07:54:43;18.93;;;5.60;;
16101;SDS011;56411;52.964;10.540;2023-02-18T07:57:12;17.87;;;4.83;;
16101;SDS011;56411;52.964;10.540;2023-02-18T07:59:39;15.40;;;4.50;;
16101;SDS011;56411;52.964;10.540;2023-02-18T08:02:06;14.40;;;4.83;;
16101;SDS011;56411;52.964;10.540;2023-02-18T08:04:40;16.90;;;4.50;;
16101;SDS011;56411;52.964;10.540;2023-02-18T08:07:10;17.37;;;4.67;;
16101;SDS011;56411;52.964;10.540;2023-02-18T08:09:38;14.67;;;4.60;;
16101;SDS011;56411;52.964;10.540;2023-02-18T08:12:05;15.07;;;4.17;;
16101;SDS011;56411;52.964;10.540;2023-02-18T08:14:34;23.23;;;5.47;;
16101;SDS011;56411;52.964;10.540;2023-02-18T08:17:01;17.23;;;4.70;;
16101;SDS011;56411;52.964;10.540;2023-02-18T08:19:28;13.00;;;4.43;;
16101;SDS011;56411;52.964;10.540;2023-02-18T08:21:55;15.60;;;6.23;;
16101;SDS011;56411;52.964;10.540;2023-02-18T08:24:26;14.67;;;4.50;;
16101;SDS011;56411;52.964;10.540;2023-02-18T08:26:52;18.10;;;5.23;;
16101;SDS011;56411;52.964;10.540;2023-02-18T08:29:19;14.27;;;4.30;;
16101;SDS011;56411;52.964;10.540;2023-02-18T08:31:48;17.67;;;4.60;;
16101;SDS011;56411;52.964;10.540;2023-02-18T08:34:16;16.57;;;4.57;;
16101;SDS011;56411;52.964;10.540;2023-02-18T08:36:43;14.27;;;4.20;;
16101;SDS011;56411;52.964;10.540;2023-02-18T08:39:10;12.80;;;4.23;;
16101;SDS011;56411;52.964;10.540;2023-02-18T08:41:40;17.23;;;4.53;;
16101;SDS011;56411;52.964;10.540;2023-02-18T08:44:10;10.17;;;4.40;;
16101;SDS011;56411;52.964;10.540;2023-02-18T08:46:37;14.17;;;4.67;;
16101;SDS011;56411;52.964;10.540;2023-02-18T08:49:05;13.73;;;4.47;;
16101;SDS011;56411;52.964;10.540;2023-02-18T08:51:32;17.77;;;5.10;;
16101;SDS011;56411;52.964;10.540;2023-02-18T08:54:00;12.83;;;4.50;;
16101;SDS011;56411;52.964;10.540;2023-02-18T08:56:27;14.83;;;4.70;;
16101;SDS011;56411;52.964;10.540;2023-02-18T08:58:54;13.30;;;5.77;;
16101;SDS011;56411;52.964;10.540;2023-02-18T09:01:21;12.33;;;5.83;;
16101;SDS011;56411;52.964;10.540;2023-02-18T09:03:48;13.87;;;5.40;;
16101;SDS011;56411;52.964;10.540;2023-02-18T09:06:16;14.50;;;5.40;;
16101;SDS011;56411;52.964;10.540;2023-02-18T09:08:43;14.10;;;5.90;;
16101;SDS011;56411;52.964;10.540;2023-02-18T09:11:10;12.80;;;4.60;;
16101;SDS011;56411;52.964;10.540;2023-02-18T09:13:38;10.03;;;4.10;;
16101;SDS011;56411;52.964;10.540;2023-02-18T09:16:05;9.37;;;3.97;;
16101;SDS011;56411;52.964;10.540;2023-02-18T09:18:34;11.10;;;4.27;;
16101;SDS011;56411;52.964;10.540;2023-02-18T09:21:01;10.67;;;3.93;;
16101;SDS011;56411;52.964;10.540;2023-02-18T09:23:32;8.90;;;3.57;;
16101;SDS011;56411;52.964;10.540;2023-02-18T09:25:59;7.40;;;3.37;;
16101;SDS011;56411;52.964;10.540;2023-02-18T09:28:26;9.47;;;3.60;;
16101;SDS011;56411;52.964;10.540;2023-02-18T09:30:53;8.80;;;3.47;;
16101;SDS011;56411;52.964;10.540;2023-02-18T09:33:20;8.80;;;3.47;;
16101;SDS011;56411;52.964;10.540;2023-02-18T09:35:47;7.40;;;3.43;;
16101;SDS011;56411;52.964;10.540;2023-02-18T09:38:15;8.83;;;3.53;;
16101;SDS011;56411;52.964;10.540;2023-02-18T09:40:44;9.37;;;3.77;;
16101;SDS011;56411;52.964;10.540;2023-02-18T09:43:18;9.83;;;3.67;;
16101;SDS011;56411;52.964;10.540;2023-02-18T09:45:50;7.70;;;3.37;;
16101;SDS011;56411;52.964;10.540;2023-02-18T09:48:18;8.97;;;3.70;;
16101;SDS011;56411;52.964;10.540;2023-02-18T09:50:51;9.70;;;3.83;;
16101;SDS011;56411;52.964;10.540;2023-02-18T09:53:19;9.83;;;3.87;;
16101;SDS011;56411;52.964;10.540;2023-02-18T09:55:49;10.80;;;4.30;;
16101;SDS011;56411;52.964;10.540;2023-02-18T09:58:19;10.80;;;4.03;;
16101;SDS011;56411;52.964;10.540;2023-02-18T10:00:49;10.97;;;4.30;;
16101;SDS011;56411;52.964;10.540;2023-02-18T10:03:19;11.27;;;4.53;;
16101;SDS011;56411;52.964;10.540;2023-02-18T10:05:52;12.60;;;4.80;;
16101;SDS011;56411;52.964;10.540;2023-02-18T10:08:24;11.67;;;4.70;;
16101;SDS011;56411;52.964;10.540;2023-02-18T10:10:54;15.77;;;6.20;;
16101;SDS011;56411;52.964;10.540;2023-02-18T10:13:22;11.70;;;4.53;;
16101;SDS011;56411;52.964;10.540;2023-02-18T10:15:50;12.83;;;4.63;;
16101;SDS011;56411;52.964;10.540;2023-02-18T10:18:21;12.90;;;4.60;;
16101;SDS011;56411;52.964;10.540;2023-02-18T10:20:55;11.77;;;4.47;;
16101;SDS011;56411;52.964;10.540;2023-02-18T10:23:26;11.80;;;4.33;;
16101;SDS011;56411;52.964;10.540;2023-02-18T10:25:57;9.53;;;3.57;;
16101;SDS011;56411;52.964;10.540;2023-02-18T10:28:26;10.57;;;4.20;;
16101;SDS011;56411;52.964;10.540;2023-02-18T10:30:55;10.27;;;3.83;;
16101;SDS011;56411;52.964;10.540;2023-02-18T10:33:31;10.97;;;4.37;;
16101;SDS011;56411;52.964;10.540;2023-02-18T10:36:11;9.70;;;3.90;;
16101;SDS011;56411;52.964;10.540;2023-02-18T10:38:52;10.30;;;3.90;;
16101;SDS011;56411;52.964;10.540;2023-02-18T10:41:33;10.00;;;3.57;;
16101;SDS011;56411;52.964;10.540;2023-02-18T10:44:12;10.00;;;3.60;;
16101;SDS011;56411;52.964;10.540;2023-02-18T10:46:50;11.00;;;3.70;;
16101;SDS011;56411;52.964;10.540;2023-02-18T10:49:29;9.50;;;3.60;;
16101;SDS011;56411;52.964;10.540;2023-02-18T10:52:13;10.00;;;3.37;;
16101;SDS011;56411;52.964;10.540;2023-02-18T10:54:50;7.57;;;3.20;;
16101;SDS011;56411;52.964;10.540;2023-02-18T10:57:24;7.63;;;3.00;;
16101;SDS011;56411;52.964;10.540;2023-02-18T10:59:56;6.47;;;2.50;;
16101;SDS011;56411;52.964;10.540;2023-02-18T11:02:25;6.17;;;2.33;;
16101;SDS011;56411;52.964;10.540;2023-02-18T11:04:56;5.60;;;2.30;;
16101;SDS011;56411;52.964;10.540;2023-02-18T11:07:27;5.80;;;2.47;;
16101;SDS011;56411;52.964;10.540;2023-02-18T11:09:57;3.90;;;2.30;;
16101;SDS011;56411;52.964;10.540;2023-02-18T11:12:27;3.67;;;2.07;;
16101;SDS011;56411;52.964;10.540;2023-02-18T11:15:05;4.30;;;2.40;;
16101;SDS011;56411;52.964;10.540;2023-02-18T11:17:42;3.20;;;2.10;;
16101;SDS011;56411;52.964;10.540;2023-02-18T11:23:11;4.97;;;2.40;;
16101;SDS011;56411;52.964;10.540;2023-02-18T11:28:40;5.53;;;2.60;;
16101;SDS011;56411;52.964;10.540;2023-02-18T11:31:14;4.53;;;2.40;;
16101;SDS011;56411;52.964;10.540;2023-02-18T11:33:46;7.40;;;3.00;;
16101;SDS011;56411;52.964;10.540;2023-02-18T11:36:21;7.30;;;3.13;;
16101;SDS011;56411;52.964;10.540;2023-02-18T11:38:51;5.87;;;2.73;;
16101;SDS011;56411;52.964;10.540;2023-02-18T11:41:21;7.23;;;2.80;;
16101;SDS011;56411;52.964;10.540;2023-02-18T11:43:57;7.33;;;3.10;;
16101;SDS011;56411;52.964;10.540;2023-02-18T11:46:26;6.50;;;2.93;;
16101;SDS011;56411;52.964;10.540;2023-02-18T11:48:54;6.80;;;3.27;;
16101;SDS011;56411;52.964;10.540;2023-02-18T11:51:23;7.43;;;3.20;;
16101;SDS011;56411;52.964;10.540;2023-02-18T11:53:53;8.53;;;3.80;;
16101;SDS011;56411;52.964;10.540;2023-02-18T11:56:24;7.93;;;3.30;;
16101;SDS011;56411;52.964;10.540;2023-02-18T11:58:53;7.30;;;3.20;;
16101;SDS011;56411;52.964;10.540;2023-02-18T12:01:29;8.77;;;3.60;;
16101;SDS011;56411;52.964;10.540;2023-02-18T12:04:04;7.93;;;3.37;;
16101;SDS011;56411;52.964;10.540;2023-02-18T12:06:36;7.97;;;3.33;;
16101;SDS011;56411;52.964;10.540;2023-02-18T12:09:14;6.23;;;3.00;;
16101;SDS011;56411;52.964;10.540;2023-02-18T12:11:48;6.80;;;2.93;;
16101;SDS011;56411;52.964;10.540;2023-02-18T12:14:19;6.47;;;2.90;;
16101;SDS011;56411;52.964;10.540;2023-02-18T12:16:56;6.80;;;2.80;;
16101;SDS011;56411;52.964;10.540;2023-02-18T12:19:41;6.20;;;2.80;;
16101;SDS011;56411;52.964;10.540;2023-02-18T12:22:21;6.90;;;2.70;;
16101;SDS011;56411;52.964;10.540;2023-02-18T12:25:01;5.83;;;2.60;;
16101;SDS011;56411;52.964;10.540;2023-02-18T12:27:40;5.27;;;2.23;;
16101;SDS011;56411;52.964;10.540;2023-02-18T12:30:25;4.47;;;2.13;;
16101;SDS011;56411;52.964;10.540;2023-02-18T12:33:10;4.67;;;2.20;;
16101;SDS011;56411;52.964;10.540;2023-02-18T12:35:49;3.63;;;1.90;;
16101;SDS011;56411;52.964;10.540;2023-02-18T12:38:32;4.30;;;2.00;;
16101;SDS011;56411;52.964;10.540;2023-02-18T12:41:22;4.23;;;2.17;;
16101;SDS011;56411;52.964;10.540;2023-02-18T12:44:04;3.40;;;1.80;;
16101;SDS011;56411;52.964;10.540;2023-02-18T12:46:42;4.47;;;2.00;;
16101;SDS011;56411;52.964;10.540;2023-02-18T12:49:38;3.07;;;1.90;;
16101;SDS011;56411;52.964;10.540;2023-02-18T12:52:23;2.50;;;1.60;;
16101;SDS011;56411;52.964;10.540;2023-02-18T12:55:19;3.00;;;1.80;;
16101;SDS011;56411;52.964;10.540;2023-02-18T12:58:01;2.80;;;1.70;;
16101;SDS011;56411;52.964;10.540;2023-02-18T13:03:28;3.73;;;2.00;;
16101;SDS011;56411;52.964;10.540;2023-02-18T13:06:15;6.33;;;2.00;;
16101;SDS011;56411;52.964;10.540;2023-02-18T13:08:51;3.23;;;1.90;;
16101;SDS011;56411;52.964;10.540;2023-02-18T13:11:32;4.20;;;1.80;;
16101;SDS011;56411;52.964;10.540;2023-02-18T13:14:08;4.37;;;1.63;;
16101;SDS011;56411;52.964;10.540;2023-02-18T13:16:38;3.43;;;1.87;;
16101;SDS011;56411;52.964;10.540;2023-02-18T13:19:13;2.23;;;1.63;;
16101;SDS011;56411;52.964;10.540;2023-02-18T13:21:46;4.17;;;2.13;;
16101;SDS011;56411;52.964;10.540;2023-02-18T13:24:18;3.67;;;1.97;;
16101;SDS011;56411;52.964;10.540;2023-02-18T13:26:51;4.13;;;1.97;;
16101;SDS011;56411;52.964;10.540;2023-02-18T13:29:25;4.63;;;2.20;;
16101;SDS011;56411;52.964;10.540;2023-02-18T13:31:59;4.40;;;2.00;;
16101;SDS011;56411;52.964;10.540;2023-02-18T13:34:33;3.07;;;1.93;;
16101;SDS011;56411;52.964;10.540;2023-02-18T13:37:10;2.57;;;1.87;;
16101;SDS011;56411;52.964;10.540;2023-02-18T13:39:45;3.87;;;2.10;;
16101;SDS011;56411;52.964;10.540;2023-02-18T13:42:25;3.50;;;2.10;;
16101;SDS011;56411;52.964;10.540;2023-02-18T13:45:06;4.10;;;2.30;;
16101;SDS011;56411;52.964;10.540;2023-02-18T13:47:49;4.60;;;2.30;;
16101;SDS011;56411;52.964;10.540;2023-02-18T13:53:21;5.57;;;2.43;;
16101;SDS011;56411;52.964;10.540;2023-02-18T13:55:54;4.10;;;2.17;;
16101;SDS011;56411;52.964;10.540;2023-02-18T13:58:27;6.53;;;2.30;;
16101;SDS011;56411;52.964;10.540;2023-02-18T14:01:00;4.70;;;2.07;;
16101;SDS011;56411;52.964;10.540;2023-02-18T14:03:33;4.70;;;1.97;;
16101;SDS011;56411;52.964;10.540;2023-02-18T14:06:18;4.77;;;2.20;;
16101;SDS011;56411;52.964;10.540;2023-02-18T14:08:48;5.77;;;2.07;;
16101;SDS011;56411;52.964;10.540;2023-02-18T14:11:32;5.30;;;2.50;;
16101;SDS011;56411;52.964;10.540;2023-02-18T14:14:13;6.23;;;2.53;;
16101;SDS011;56411;52.964;10.540;2023-02-18T14:22:58;7.37;;;3.07;;
16101;SDS011;56411;52.964;10.540;2023-02-18T14:25:37;6.70;;;2.90;;
16101;SDS011;56411;52.964;10.540;2023-02-18T14:31:06;12.63;;;4.80;;
16101;SDS011;56411;52.964;10.540;2023-02-18T14:34:08;9.27;;;3.50;;
16101;SDS011;56411;52.964;10.540;2023-02-18T14:37:00;12.13;;;3.80;;
16101;SDS011;56411;52.964;10.540;2023-02-18T14:39:40;10.17;;;4.10;;
16101;SDS011;56411;52.964;10.540;2023-02-18T14:42:21;10.47;;;3.63;;
16101;SDS011;56411;52.964;10.540;2023-02-18T14:45:00;7.00;;;2.87;;
16101;SDS011;56411;52.964;10.540;2023-02-18T14:47:38;8.87;;;3.60;;
16101;SDS011;56411;52.964;10.540;2023-02-18T14:50:19;10.90;;;4.37;;
16101;SDS011;56411;52.964;10.540;2023-02-18T14:52:47;11.17;;;3.60;;
16101;SDS011;56411;52.964;10.540;2023-02-18T14:55:18;12.27;;;4.07;;
16101;SDS011;56411;52.964;10.540;2023-02-18T14:57:50;11.60;;;3.70;;
16101;SDS011;56411;52.964;10.540;2023-02-18T15:00:21;12.07;;;3.40;;
16101;SDS011;56411;52.964;10.540;2023-02-18T15:02:52;9.47;;;2.77;;
16101;SDS011;56411;52.964;10.540;2023-02-18T15:05:21;12.03;;;2.93;;
16101;SDS011;56411;52.964;10.540;2023-02-18T15:07:56;10.67;;;2.93;;
16101;SDS011;56411;52.964;10.540;2023-02-18T15:10:33;8.77;;;2.80;;
16101;SDS011;56411;52.964;10.540;2023-02-18T15:13:06;10.53;;;2.87;;
16101;SDS011;56411;52.964;10.540;2023-02-18T15:15:38;9.23;;;2.83;;
16101;SDS011;56411;52.964;10.540;2023-02-18T15:18:10;14.03;;;3.37;;